Ana Sayfa
METAR-TAF:

METAR-TAF

Havaalanları :

Colonel James Jabara Airport

Wichita, Kansas, Amerika Birleşik Devletleri

Enlem: 37-44-59N, Boylam: 097-13-08W, yükseklik: 432 m

Güncel hava durumu gözlemi

Rapor saat 00:22 UTC de 24 dakika önce yapıldı.
Rüzgar kuzey/kuzeybatıdan 15 kt
Sıcaklık 7°C
Nem 66%
Basınç 1022 hPa
Görüş mesafesi: 16.1 km
2600 ft yükseklikte parçalı çok bulutlu

METAR: KAAO 280022Z AUTO 33015KT 10SM BKN026 07/01 A3017 RMK AO2 T00670011

Saat: 18:46 (00:46 UTC)


TAF: eksik

4.000'den fazla havaalanı için hava durumu gözlemleri ve tahminleri (METAR ve TAF raporları).

Kullanılabilir istasyonlar harita üzerinde sarı ve kırmızı noktalarla gösterilir.

İstasyonun adını görmek için fareyi noktanın üzerinde gezdirin.

Sonrasında hava gözlem ve tahminlerini görmek için tıklayın.

Haritayı değiştirmek için: yaklaştırmak için siyah artı işaretli yeşil düğmeye ve uzaklaştırmak için de eksi işaretli düğmeye hızla tıklayın; bitişik haritalar için yeşil okları kullanın.


METAR-TAF: